Seleccione un Aeropuerto
Regional La Paz
EstacinAerodromoSit. GeograficaDescripcin
SLLPInternaciónal El Alto16-08S-68-10W SLLP 270700Z 06004KT 4000E VCFG FEW002 SCT200 02/01 Q1039 A3069 628.8 HR98 VCFG E/SE/S AC NOSIG=
SLRYReyes14-18S-67-21W SLRY 242000Z 18006KT 9999 NSC 33/19 Q1012 A2990 HR44 FU CI RWY NML=
SLRQRurrenabaque14-25S-67-29W SLRQ 242000Z 12004KT 8000 FEW080 SCT200 33/20 Q1013 A2992 989.2 HR44 FU=
SLAPApolo14-44S-68-24W SLAP 242000Z 01015KT 9999 SCT025 FEW027CB BKN200 26/16 Q1019 A3010 859.6 HR54 CB/NE/W AC/FU=
SLSBSan Borja14-51S-66-44W SLSB 262000Z 31008KT 6000 NSC 35/21 Q1009 A2982 HR44 FU RWY NML=
SLCNCharaña17-35S-69-25W
SLOROruro17-57S-67-04W SLOR 261800Z 19004KT 9999 FEW020 20/01 Q1037 A3062 657.3 HR28=
SLUYUyuni20-27S-62-52W SLUY 261400Z 21008KT 9999 NSC 11/M01 Q1036 A3063 660.1 HR22=
SLCCCopacabana - Tito Yupanqui16-11S-69-05W
Regional Cochabamba
EstacinAerodromoSit. GeograficaDescripcin
SLVMVillamontes21-15S-63-24W SLVM 261900Z NIL=
SLHIChimore16-58S-65-09W SLHI 261900Z NIL
SLCBCochabamba17-25S-66-10W SLCB 270700Z 00000KT 9999 NSC 12/05 Q1026 A3031 752.5 HR60 FU CI NOSIG=
SLALAlcantari19-14S-65-09W SLAL 270200Z 35006KT 9999 NSC 11/04 Q1033 A3050 706.3 HR61=
SLPOPotosí19-32S-65-43W SLPO 261900Z NIL=
SLAGMonteagudo19-49S-63-58W SLAG 261900Z NIL=
SLTJTarija21-33S-64-42W SLTJ 270300Z 00000KT 9999 NSC 19/09 Q1022 A3019 816.9 HR55=
SLYAYacuiba21-57S-63-39W SLYA 261900Z NIL=
SLBJBermejo22-46S-64-18W SLBJ 261900Z NIL=
Regional Santa Cruz
EstacinAerodromoSit. GeograficaDescripcin
SLVGValle Grande18-28S-64-05W SLVG 261800Z 36010KT 4000 FEW030 27/13 Q1023 A3021 HR36 FU RWY NML=
SLASAscención de Guarayos15-55S-63-09W SLAS 261800Z 36010KT 3500 FU NSC 37/21 Q1013 A2991 HR40 RWY NML=
SLCPConcepción16-08S-62-01W SLCP 262200Z 00000KT 4000 FU NSC 32/19 Q1013 A2991 HR44 RWY NML =
SLJVSan Javier16-16S-62-28W SLJV 261300Z WO ATTN=
SLTISan Matías16-20S-58-24W SLTI 261800Z 36006KT 6000 NSC 39/21 Q1015 A2997 HR36 FU RWY NML =
SLSISan Ignacio de Velasco16-23S-60-57W SLSI 061200Z 00000KT 8000 NSC 26/21 Q1012 A2988 HR74 FU=
SLVRInternaciónal Viru Viru17-38S-63-08W SLVR 270700Z 34005KT 4000 FU NSC 24/22 Q1011 A2988 HR90 CI NOSIG=
SLETEl Trompillo17-48S-63-10W SLET 262300Z 32009KT 4000 FU NSC 29/21 Q1009 A2982 HR61 CI NOSIG=
SLJESan José de Chiquitos17-49S-60-44W SLJE 252100Z WO ATTN=
SLRBRoboré18-19S-59-45W SLRB 262300Z 00000KT 5000 FU NSC 34/22 Q1011 A2985 HR48 RWY NML =
SLPSPuerto Suárez18-58S-57-49W SLPS 242200Z 00000KT 8000 NSC 32/19 Q1018 A3007 HR46 FU=
SLCACamiri20-00S-63-31W SLCA 262300Z 00000KT 9999 NSC 32/16 Q1012 A2988 HR39 FU RWY NML =
Regional Beni
EstacinAerodromoSit. GeograficaDescripcin
SLTRTrinidad14-49S-64-54W SLTR 262300Z 00000KT 5000 FU NSC 32/24 Q1009 A2980 990.7 HR64 NOSIG=
SLCOCobija11-02S-68-47W SLCO 261800Z 34003KT 9000 BKN027 35/24 Q1012 A2989 984.7 HR52 FU=
SLGMGuayaramerín10-53S-65-23W SLGM 262300Z 30003KT 5000 FU FEW023 SCT200 31/24 Q1011 A2986 HR64=
SLRIRiberalta11-00S-66-04W SLRI 262300Z 00000KT 5000 FU NSC 32/23 Q1010 A2985 HR61 CI=
SLJOSan Joaquin13-03S-64-39W SLJO 262200Z 32004KT 8000 NSC 34/23 Q1008 A2977 HR52 FU CI RWY NML=
SLRASan Ramón13-15S-64-36W SLRA 262200Z WO ATTN=
SLMGSan Magdalena13-15S-64-36W SLMG 262200Z 32004KT 8000 FEW017 34/21 Q1007 A2974 HR47 FU RWY NML=
SLBUBaures13-39S-63-42W SLBU 262200Z NIL=
SLSASanta Ana de Yacuma13-45S-65-26W SLSA 262300Z 00000KT 7000 NSC 31/21 Q1009 A2980 HR54 FU CI=
SLSRSanta Rosa14-04S-66-47W SLSR 262200Z 32010KT 5000 FU NSC 34/24 Q1012 A2989 HR56 RWY NML=
SLSMSan Ignacio de Moxos14-57S-65-38W SLSM 262200Z NIL=